sensor_id;sensor_type;location;lat;lon;timestamp;P1;durP1;ratioP1;P2;durP2;ratioP2
21239;SDS011;10778;48.962;9.018;2023-09-12T00:01:17;13.65;;;7.07;;
21239;SDS011;10778;48.962;9.018;2023-09-12T00:03:43;10.05;;;6.93;;
21239;SDS011;10778;48.962;9.018;2023-09-12T00:06:09;15.00;;;7.30;;
21239;SDS011;10778;48.962;9.018;2023-09-12T00:08:35;15.98;;;7.65;;
21239;SDS011;10778;48.962;9.018;2023-09-12T00:11:08;14.02;;;7.53;;
21239;SDS011;10778;48.962;9.018;2023-09-12T00:13:37;13.45;;;7.35;;
21239;SDS011;10778;48.962;9.018;2023-09-12T00:16:04;9.90;;;7.38;;
21239;SDS011;10778;48.962;9.018;2023-09-12T00:18:31;11.80;;;7.10;;
21239;SDS011;10778;48.962;9.018;2023-09-12T00:20:57;12.15;;;7.50;;
21239;SDS011;10778;48.962;9.018;2023-09-12T00:23:25;11.23;;;6.88;;
21239;SDS011;10778;48.962;9.018;2023-09-12T00:25:51;11.10;;;6.90;;
21239;SDS011;10778;48.962;9.018;2023-09-12T00:28:20;11.63;;;6.93;;
21239;SDS011;10778;48.962;9.018;2023-09-12T00:30:46;10.27;;;7.10;;
21239;SDS011;10778;48.962;9.018;2023-09-12T00:33:12;10.10;;;7.00;;
21239;SDS011;10778;48.962;9.018;2023-09-12T00:35:38;9.75;;;6.90;;
21239;SDS011;10778;48.962;9.018;2023-09-12T00:38:04;11.85;;;7.93;;
21239;SDS011;10778;48.962;9.018;2023-09-12T00:40:32;12.40;;;7.60;;
21239;SDS011;10778;48.962;9.018;2023-09-12T00:42:58;9.25;;;7.10;;
21239;SDS011;10778;48.962;9.018;2023-09-12T00:45:25;10.73;;;7.20;;
21239;SDS011;10778;48.962;9.018;2023-09-12T00:47:51;13.45;;;7.32;;
21239;SDS011;10778;48.962;9.018;2023-09-12T00:50:19;9.85;;;7.05;;
21239;SDS011;10778;48.962;9.018;2023-09-12T00:52:47;10.52;;;7.20;;
21239;SDS011;10778;48.962;9.018;2023-09-12T00:55:13;10.05;;;7.00;;
21239;SDS011;10778;48.962;9.018;2023-09-12T00:57:40;10.02;;;6.93;;
21239;SDS011;10778;48.962;9.018;2023-09-12T01:00:07;10.13;;;6.50;;
21239;SDS011;10778;48.962;9.018;2023-09-12T01:02:37;11.13;;;7.28;;
21239;SDS011;10778;48.962;9.018;2023-09-12T01:05:13;8.88;;;6.63;;
21239;SDS011;10778;48.962;9.018;2023-09-12T01:07:40;13.07;;;7.32;;
21239;SDS011;10778;48.962;9.018;2023-09-12T01:10:08;12.13;;;7.20;;
21239;SDS011;10778;48.962;9.018;2023-09-12T01:12:35;12.90;;;7.00;;
21239;SDS011;10778;48.962;9.018;2023-09-12T01:15:01;11.32;;;7.28;;
21239;SDS011;10778;48.962;9.018;2023-09-12T01:17:30;14.50;;;7.15;;
21239;SDS011;10778;48.962;9.018;2023-09-12T01:19:56;11.25;;;7.45;;
21239;SDS011;10778;48.962;9.018;2023-09-12T01:28:36;12.57;;;7.30;;
21239;SDS011;10778;48.962;9.018;2023-09-12T01:31:08;13.43;;;7.57;;
21239;SDS011;10778;48.962;9.018;2023-09-12T01:33:35;15.27;;;7.80;;
21239;SDS011;10778;48.962;9.018;2023-09-12T01:36:01;10.93;;;7.20;;
21239;SDS011;10778;48.962;9.018;2023-09-12T01:38:27;12.10;;;7.35;;
21239;SDS011;10778;48.962;9.018;2023-09-12T01:40:53;10.77;;;7.10;;
21239;SDS011;10778;48.962;9.018;2023-09-12T01:43:21;11.80;;;7.30;;
21239;SDS011;10778;48.962;9.018;2023-09-12T01:45:50;10.32;;;7.05;;
21239;SDS011;10778;48.962;9.018;2023-09-12T01:48:20;11.13;;;7.03;;
21239;SDS011;10778;48.962;9.018;2023-09-12T01:50:49;12.55;;;7.25;;
21239;SDS011;10778;48.962;9.018;2023-09-12T01:53:16;10.63;;;6.97;;
21239;SDS011;10778;48.962;9.018;2023-09-12T01:55:43;13.90;;;7.90;;
21239;SDS011;10778;48.962;9.018;2023-09-12T01:58:11;13.93;;;7.93;;
21239;SDS011;10778;48.962;9.018;2023-09-12T02:00:39;11.10;;;7.68;;
21239;SDS011;10778;48.962;9.018;2023-09-12T02:03:05;11.60;;;6.80;;
21239;SDS011;10778;48.962;9.018;2023-09-12T02:05:31;13.55;;;7.68;;
21239;SDS011;10778;48.962;9.018;2023-09-12T02:07:58;14.85;;;8.10;;
21239;SDS011;10778;48.962;9.018;2023-09-12T02:10:27;11.48;;;7.38;;
21239;SDS011;10778;48.962;9.018;2023-09-12T02:12:53;14.52;;;7.65;;
21239;SDS011;10778;48.962;9.018;2023-09-12T02:15:19;15.85;;;7.88;;
21239;SDS011;10778;48.962;9.018;2023-09-12T02:17:45;12.18;;;8.32;;
21239;SDS011;10778;48.962;9.018;2023-09-12T02:20:11;11.65;;;7.60;;
21239;SDS011;10778;48.962;9.018;2023-09-12T02:22:37;11.70;;;8.13;;
21239;SDS011;10778;48.962;9.018;2023-09-12T02:25:04;13.73;;;8.10;;
21239;SDS011;10778;48.962;9.018;2023-09-12T02:27:31;13.55;;;8.02;;
21239;SDS011;10778;48.962;9.018;2023-09-12T02:29:57;12.48;;;7.93;;
21239;SDS011;10778;48.962;9.018;2023-09-12T02:32:23;13.60;;;7.95;;
21239;SDS011;10778;48.962;9.018;2023-09-12T02:34:49;11.68;;;7.65;;
21239;SDS011;10778;48.962;9.018;2023-09-12T02:37:15;11.10;;;7.53;;
21239;SDS011;10778;48.962;9.018;2023-09-12T02:39:41;14.30;;;7.95;;
21239;SDS011;10778;48.962;9.018;2023-09-12T02:42:07;12.45;;;8.13;;
21239;SDS011;10778;48.962;9.018;2023-09-12T02:44:33;11.90;;;7.82;;
21239;SDS011;10778;48.962;9.018;2023-09-12T02:46:59;15.05;;;7.82;;
21239;SDS011;10778;48.962;9.018;2023-09-12T02:49:25;11.15;;;7.65;;
21239;SDS011;10778;48.962;9.018;2023-09-12T02:51:51;13.38;;;7.75;;
21239;SDS011;10778;48.962;9.018;2023-09-12T02:54:17;13.20;;;7.70;;
21239;SDS011;10778;48.962;9.018;2023-09-12T02:56:43;12.73;;;8.00;;
21239;SDS011;10778;48.962;9.018;2023-09-12T02:59:09;12.18;;;7.45;;
21239;SDS011;10778;48.962;9.018;2023-09-12T03:01:35;12.63;;;8.57;;
21239;SDS011;10778;48.962;9.018;2023-09-12T03:04:01;14.82;;;8.50;;
21239;SDS011;10778;48.962;9.018;2023-09-12T03:06:28;12.40;;;8.18;;
21239;SDS011;10778;48.962;9.018;2023-09-12T03:08:56;11.57;;;8.50;;
21239;SDS011;10778;48.962;9.018;2023-09-12T03:11:22;14.23;;;8.98;;
21239;SDS011;10778;48.962;9.018;2023-09-12T03:13:51;13.40;;;8.70;;
21239;SDS011;10778;48.962;9.018;2023-09-12T03:16:17;12.60;;;8.32;;
21239;SDS011;10778;48.962;9.018;2023-09-12T03:18:43;13.02;;;8.20;;
21239;SDS011;10778;48.962;9.018;2023-09-12T03:21:09;11.95;;;7.88;;
21239;SDS011;10778;48.962;9.018;2023-09-12T03:23:35;13.38;;;8.10;;
21239;SDS011;10778;48.962;9.018;2023-09-12T03:26:04;15.48;;;8.30;;
21239;SDS011;10778;48.962;9.018;2023-09-12T03:28:33;11.60;;;8.70;;
21239;SDS011;10778;48.962;9.018;2023-09-12T03:31:13;14.25;;;8.55;;
21239;SDS011;10778;48.962;9.018;2023-09-12T03:33:41;14.07;;;8.43;;
21239;SDS011;10778;48.962;9.018;2023-09-12T03:36:08;14.23;;;8.38;;
21239;SDS011;10778;48.962;9.018;2023-09-12T03:38:34;14.35;;;8.70;;
21239;SDS011;10778;48.962;9.018;2023-09-12T03:41:01;11.63;;;8.40;;
21239;SDS011;10778;48.962;9.018;2023-09-12T03:43:28;10.13;;;8.15;;
21239;SDS011;10778;48.962;9.018;2023-09-12T03:45:54;9.60;;;8.10;;
21239;SDS011;10778;48.962;9.018;2023-09-12T03:48:21;13.48;;;8.77;;
21239;SDS011;10778;48.962;9.018;2023-09-12T03:50:47;11.45;;;8.20;;
21239;SDS011;10778;48.962;9.018;2023-09-12T03:53:13;15.02;;;9.27;;
21239;SDS011;10778;48.962;9.018;2023-09-12T03:55:40;13.55;;;10.18;;
21239;SDS011;10778;48.962;9.018;2023-09-12T03:58:06;15.30;;;9.57;;
21239;SDS011;10778;48.962;9.018;2023-09-12T04:00:32;13.63;;;9.43;;
21239;SDS011;10778;48.962;9.018;2023-09-12T04:02:58;13.88;;;8.88;;
21239;SDS011;10778;48.962;9.018;2023-09-12T04:05:25;12.38;;;9.05;;
21239;SDS011;10778;48.962;9.018;2023-09-12T04:07:51;13.60;;;9.50;;
21239;SDS011;10778;48.962;9.018;2023-09-12T04:10:18;14.40;;;9.48;;
21239;SDS011;10778;48.962;9.018;2023-09-12T04:12:45;13.75;;;9.30;;
21239;SDS011;10778;48.962;9.018;2023-09-12T04:15:12;17.38;;;9.30;;
21239;SDS011;10778;48.962;9.018;2023-09-12T04:17:38;14.82;;;9.38;;
21239;SDS011;10778;48.962;9.018;2023-09-12T04:20:04;11.75;;;8.70;;
21239;SDS011;10778;48.962;9.018;2023-09-12T04:22:32;14.80;;;8.95;;
21239;SDS011;10778;48.962;9.018;2023-09-12T04:24:59;11.50;;;8.70;;
21239;SDS011;10778;48.962;9.018;2023-09-12T04:27:25;12.35;;;9.15;;
21239;SDS011;10778;48.962;9.018;2023-09-12T04:29:51;13.95;;;8.80;;
21239;SDS011;10778;48.962;9.018;2023-09-12T04:32:17;13.57;;;9.18;;
21239;SDS011;10778;48.962;9.018;2023-09-12T04:34:49;14.65;;;9.25;;
21239;SDS011;10778;48.962;9.018;2023-09-12T04:37:16;12.70;;;8.95;;
21239;SDS011;10778;48.962;9.018;2023-09-12T04:39:42;13.73;;;8.98;;
21239;SDS011;10778;48.962;9.018;2023-09-12T04:42:08;13.23;;;9.35;;
21239;SDS011;10778;48.962;9.018;2023-09-12T04:44:34;12.35;;;9.23;;
21239;SDS011;10778;48.962;9.018;2023-09-12T04:47:02;14.52;;;9.05;;
21239;SDS011;10778;48.962;9.018;2023-09-12T04:49:28;13.52;;;9.32;;
21239;SDS011;10778;48.962;9.018;2023-09-12T04:51:56;13.18;;;8.75;;
21239;SDS011;10778;48.962;9.018;2023-09-12T04:54:22;13.70;;;9.80;;
21239;SDS011;10778;48.962;9.018;2023-09-12T04:56:48;15.00;;;9.50;;
21239;SDS011;10778;48.962;9.018;2023-09-12T04:59:14;11.02;;;9.05;;
21239;SDS011;10778;48.962;9.018;2023-09-12T05:01:40;13.57;;;9.40;;
21239;SDS011;10778;48.962;9.018;2023-09-12T05:04:06;14.27;;;9.57;;
21239;SDS011;10778;48.962;9.018;2023-09-12T05:06:32;20.70;;;9.82;;
21239;SDS011;10778;48.962;9.018;2023-09-12T05:08:59;14.35;;;9.15;;
21239;SDS011;10778;48.962;9.018;2023-09-12T05:11:25;12.50;;;9.63;;
21239;SDS011;10778;48.962;9.018;2023-09-12T05:13:52;16.10;;;9.77;;
21239;SDS011;10778;48.962;9.018;2023-09-12T05:16:18;17.42;;;10.15;;
21239;SDS011;10778;48.962;9.018;2023-09-12T05:18:44;13.43;;;9.45;;
21239;SDS011;10778;48.962;9.018;2023-09-12T05:21:10;13.90;;;9.35;;
21239;SDS011;10778;48.962;9.018;2023-09-12T05:23:36;12.50;;;8.85;;
21239;SDS011;10778;48.962;9.018;2023-09-12T05:26:02;11.77;;;8.82;;
21239;SDS011;10778;48.962;9.018;2023-09-12T05:28:28;12.43;;;8.30;;
21239;SDS011;10778;48.962;9.018;2023-09-12T05:30:54;12.23;;;8.75;;
21239;SDS011;10778;48.962;9.018;2023-09-12T05:33:20;12.02;;;8.25;;
21239;SDS011;10778;48.962;9.018;2023-09-12T05:35:47;12.02;;;8.27;;
21239;SDS011;10778;48.962;9.018;2023-09-12T05:38:13;15.23;;;8.93;;
21239;SDS011;10778;48.962;9.018;2023-09-12T05:40:39;15.73;;;9.23;;
21239;SDS011;10778;48.962;9.018;2023-09-12T05:43:05;12.70;;;8.57;;
21239;SDS011;10778;48.962;9.018;2023-09-12T05:45:31;15.88;;;8.90;;
21239;SDS011;10778;48.962;9.018;2023-09-12T05:47:59;14.90;;;8.93;;
21239;SDS011;10778;48.962;9.018;2023-09-12T05:50:26;12.82;;;8.68;;
21239;SDS011;10778;48.962;9.018;2023-09-12T05:52:52;13.50;;;8.90;;
21239;SDS011;10778;48.962;9.018;2023-09-12T05:55:18;14.80;;;8.55;;
21239;SDS011;10778;48.962;9.018;2023-09-12T05:57:45;12.00;;;7.75;;
21239;SDS011;10778;48.962;9.018;2023-09-12T06:00:11;13.73;;;9.00;;
21239;SDS011;10778;48.962;9.018;2023-09-12T06:02:41;14.77;;;9.55;;
21239;SDS011;10778;48.962;9.018;2023-09-12T06:05:08;13.70;;;9.10;;
21239;SDS011;10778;48.962;9.018;2023-09-12T06:07:34;16.80;;;8.73;;
21239;SDS011;10778;48.962;9.018;2023-09-12T06:10:01;13.05;;;8.68;;
21239;SDS011;10778;48.962;9.018;2023-09-12T06:12:27;14.75;;;8.95;;
21239;SDS011;10778;48.962;9.018;2023-09-12T06:14:53;13.10;;;8.13;;
21239;SDS011;10778;48.962;9.018;2023-09-12T06:17:21;15.43;;;8.77;;
21239;SDS011;10778;48.962;9.018;2023-09-12T06:19:48;11.05;;;8.82;;
21239;SDS011;10778;48.962;9.018;2023-09-12T06:22:17;13.93;;;8.95;;
21239;SDS011;10778;48.962;9.018;2023-09-12T06:24:43;16.98;;;9.90;;
21239;SDS011;10778;48.962;9.018;2023-09-12T06:27:10;13.57;;;8.88;;
21239;SDS011;10778;48.962;9.018;2023-09-12T06:29:38;13.20;;;8.60;;
21239;SDS011;10778;48.962;9.018;2023-09-12T06:32:04;13.95;;;9.63;;
21239;SDS011;10778;48.962;9.018;2023-09-12T06:34:30;16.20;;;9.15;;
21239;SDS011;10778;48.962;9.018;2023-09-12T06:36:56;14.30;;;8.45;;
21239;SDS011;10778;48.962;9.018;2023-09-12T06:39:22;12.35;;;8.20;;
21239;SDS011;10778;48.962;9.018;2023-09-12T06:41:50;15.02;;;9.18;;
21239;SDS011;10778;48.962;9.018;2023-09-12T06:44:16;12.63;;;8.48;;
21239;SDS011;10778;48.962;9.018;2023-09-12T06:46:42;12.50;;;8.57;;
21239;SDS011;10778;48.962;9.018;2023-09-12T06:49:08;16.25;;;8.70;;
21239;SDS011;10778;48.962;9.018;2023-09-12T06:51:33;13.48;;;8.85;;
21239;SDS011;10778;48.962;9.018;2023-09-12T06:53:59;13.02;;;9.18;;
21239;SDS011;10778;48.962;9.018;2023-09-12T06:56:25;17.33;;;10.55;;
21239;SDS011;10778;48.962;9.018;2023-09-12T06:58:52;15.38;;;9.40;;
21239;SDS011;10778;48.962;9.018;2023-09-12T07:01:20;21.38;;;11.00;;
21239;SDS011;10778;48.962;9.018;2023-09-12T07:03:46;19.13;;;10.68;;
21239;SDS011;10778;48.962;9.018;2023-09-12T07:06:12;17.33;;;10.00;;
21239;SDS011;10778;48.962;9.018;2023-09-12T07:08:39;16.88;;;10.55;;
21239;SDS011;10778;48.962;9.018;2023-09-12T07:11:05;19.30;;;12.68;;
21239;SDS011;10778;48.962;9.018;2023-09-12T07:13:32;18.27;;;11.60;;
21239;SDS011;10778;48.962;9.018;2023-09-12T07:15:58;21.88;;;12.20;;
21239;SDS011;10778;48.962;9.018;2023-09-12T07:18:24;21.60;;;12.70;;
21239;SDS011;10778;48.962;9.018;2023-09-12T07:21:00;19.38;;;12.15;;
21239;SDS011;10778;48.962;9.018;2023-09-12T07:23:28;19.52;;;11.98;;
21239;SDS011;10778;48.962;9.018;2023-09-12T07:25:55;19.95;;;11.07;;
21239;SDS011;10778;48.962;9.018;2023-09-12T07:28:25;16.38;;;10.45;;
21239;SDS011;10778;48.962;9.018;2023-09-12T07:30:52;18.42;;;10.52;;
21239;SDS011;10778;48.962;9.018;2023-09-12T07:33:19;16.05;;;10.00;;
21239;SDS011;10778;48.962;9.018;2023-09-12T07:35:47;17.77;;;10.15;;
21239;SDS011;10778;48.962;9.018;2023-09-12T07:38:13;15.18;;;10.00;;
21239;SDS011;10778;48.962;9.018;2023-09-12T07:40:41;14.70;;;9.70;;
21239;SDS011;10778;48.962;9.018;2023-09-12T07:43:08;17.75;;;9.90;;
21239;SDS011;10778;48.962;9.018;2023-09-12T07:45:35;15.38;;;9.32;;
21239;SDS011;10778;48.962;9.018;2023-09-12T07:48:05;17.10;;;9.40;;
21239;SDS011;10778;48.962;9.018;2023-09-12T07:50:32;18.13;;;9.95;;
21239;SDS011;10778;48.962;9.018;2023-09-12T07:52:58;12.88;;;9.30;;
21239;SDS011;10778;48.962;9.018;2023-09-12T07:55:24;13.02;;;9.02;;
21239;SDS011;10778;48.962;9.018;2023-09-12T07:57:50;14.98;;;9.70;;
21239;SDS011;10778;48.962;9.018;2023-09-12T08:00:16;13.70;;;9.40;;
21239;SDS011;10778;48.962;9.018;2023-09-12T08:02:42;19.88;;;9.60;;
21239;SDS011;10778;48.962;9.018;2023-09-12T08:05:08;16.40;;;10.00;;
21239;SDS011;10778;48.962;9.018;2023-09-12T08:07:35;16.70;;;9.18;;
21239;SDS011;10778;48.962;9.018;2023-09-12T08:10:01;15.30;;;9.38;;
21239;SDS011;10778;48.962;9.018;2023-09-12T08:12:28;14.55;;;9.38;;
21239;SDS011;10778;48.962;9.018;2023-09-12T08:14:54;17.85;;;9.60;;
21239;SDS011;10778;48.962;9.018;2023-09-12T08:17:21;13.05;;;9.07;;
21239;SDS011;10778;48.962;9.018;2023-09-12T08:19:47;17.92;;;9.82;;
21239;SDS011;10778;48.962;9.018;2023-09-12T08:22:13;13.80;;;9.68;;
21239;SDS011;10778;48.962;9.018;2023-09-12T08:24:40;15.25;;;9.63;;
21239;SDS011;10778;48.962;9.018;2023-09-12T08:27:06;16.25;;;9.00;;
21239;SDS011;10778;48.962;9.018;2023-09-12T08:29:33;16.60;;;9.48;;
21239;SDS011;10778;48.962;9.018;2023-09-12T08:31:59;18.50;;;9.38;;
21239;SDS011;10778;48.962;9.018;2023-09-12T08:34:26;15.13;;;9.48;;
21239;SDS011;10778;48.962;9.018;2023-09-12T08:36:52;17.50;;;9.45;;
21239;SDS011;10778;48.962;9.018;2023-09-12T08:39:23;16.75;;;9.45;;
21239;SDS011;10778;48.962;9.018;2023-09-12T08:41:51;17.77;;;9.38;;
21239;SDS011;10778;48.962;9.018;2023-09-12T08:44:17;14.90;;;9.40;;
21239;SDS011;10778;48.962;9.018;2023-09-12T08:46:44;14.90;;;9.20;;
21239;SDS011;10778;48.962;9.018;2023-09-12T08:49:11;15.13;;;8.70;;
21239;SDS011;10778;48.962;9.018;2023-09-12T08:51:37;14.43;;;8.07;;
21239;SDS011;10778;48.962;9.018;2023-09-12T08:54:05;13.73;;;8.45;;
21239;SDS011;10778;48.962;9.018;2023-09-12T08:56:36;12.75;;;8.07;;
21239;SDS011;10778;48.962;9.018;2023-09-12T08:59:04;11.60;;;8.07;;
21239;SDS011;10778;48.962;9.018;2023-09-12T09:01:31;14.13;;;8.38;;
21239;SDS011;10778;48.962;9.018;2023-09-12T09:04:01;14.82;;;8.75;;
21239;SDS011;10778;48.962;9.018;2023-09-12T09:06:30;13.07;;;8.05;;
21239;SDS011;10778;48.962;9.018;2023-09-12T09:08:58;11.95;;;7.88;;
21239;SDS011;10778;48.962;9.018;2023-09-12T09:11:25;13.70;;;8.63;;
21239;SDS011;10778;48.962;9.018;2023-09-12T09:13:54;11.10;;;8.20;;
21239;SDS011;10778;48.962;9.018;2023-09-12T09:16:20;12.50;;;8.18;;
21239;SDS011;10778;48.962;9.018;2023-09-12T09:21:19;17.38;;;8.52;;
21239;SDS011;10778;48.962;9.018;2023-09-12T09:23:47;14.27;;;8.32;;
21239;SDS011;10778;48.962;9.018;2023-09-12T09:26:13;14.82;;;8.07;;
21239;SDS011;10778;48.962;9.018;2023-09-12T09:28:39;14.60;;;8.55;;
21239;SDS011;10778;48.962;9.018;2023-09-12T09:31:09;15.80;;;8.45;;
21239;SDS011;10778;48.962;9.018;2023-09-12T09:33:36;17.88;;;8.65;;
21239;SDS011;10778;48.962;9.018;2023-09-12T09:36:04;13.82;;;8.48;;
21239;SDS011;10778;48.962;9.018;2023-09-12T09:38:31;10.85;;;8.00;;
21239;SDS011;10778;48.962;9.018;2023-09-12T09:40:59;12.88;;;8.30;;
21239;SDS011;10778;48.962;9.018;2023-09-12T09:43:25;12.25;;;8.07;;
21239;SDS011;10778;48.962;9.018;2023-09-12T09:45:52;15.05;;;8.93;;
21239;SDS011;10778;48.962;9.018;2023-09-12T09:48:22;14.25;;;8.73;;
21239;SDS011;10778;48.962;9.018;2023-09-12T09:50:48;12.00;;;8.13;;
21239;SDS011;10778;48.962;9.018;2023-09-12T09:53:15;16.25;;;8.70;;
21239;SDS011;10778;48.962;9.018;2023-09-12T09:55:41;15.15;;;8.20;;
21239;SDS011;10778;48.962;9.018;2023-09-12T09:58:08;12.73;;;8.20;;
21239;SDS011;10778;48.962;9.018;2023-09-12T10:00:34;13.93;;;8.02;;
21239;SDS011;10778;48.962;9.018;2023-09-12T10:03:05;13.25;;;8.23;;
21239;SDS011;10778;48.962;9.018;2023-09-12T10:05:33;15.85;;;7.80;;
21239;SDS011;10778;48.962;9.018;2023-09-12T10:08:03;13.43;;;8.18;;
21239;SDS011;10778;48.962;9.018;2023-09-12T10:10:32;12.68;;;8.15;;
21239;SDS011;10778;48.962;9.018;2023-09-12T10:13:00;12.10;;;8.25;;
21239;SDS011;10778;48.962;9.018;2023-09-12T10:15:29;16.95;;;7.95;;
21239;SDS011;10778;48.962;9.018;2023-09-12T10:17:57;12.05;;;7.93;;
21239;SDS011;10778;48.962;9.018;2023-09-12T10:20:25;10.68;;;7.75;;
21239;SDS011;10778;48.962;9.018;2023-09-12T10:25:36;14.38;;;7.95;;
21239;SDS011;10778;48.962;9.018;2023-09-12T10:28:04;15.75;;;7.97;;
21239;SDS011;10778;48.962;9.018;2023-09-12T10:30:32;12.15;;;7.88;;
21239;SDS011;10778;48.962;9.018;2023-09-12T10:32:59;14.88;;;7.50;;
21239;SDS011;10778;48.962;9.018;2023-09-12T10:35:27;12.68;;;7.63;;
21239;SDS011;10778;48.962;9.018;2023-09-12T10:37:55;12.10;;;6.90;;
21239;SDS011;10778;48.962;9.018;2023-09-12T10:40:26;12.63;;;6.88;;
21239;SDS011;10778;48.962;9.018;2023-09-12T10:42:53;13.13;;;7.25;;
21239;SDS011;10778;48.962;9.018;2023-09-12T10:45:21;11.48;;;7.70;;
21239;SDS011;10778;48.962;9.018;2023-09-12T10:47:47;11.52;;;7.30;;
21239;SDS011;10778;48.962;9.018;2023-09-12T10:50:14;16.42;;;7.60;;
21239;SDS011;10778;48.962;9.018;2023-09-12T10:52:40;11.55;;;7.35;;
21239;SDS011;10778;48.962;9.018;2023-09-12T10:55:07;14.40;;;7.72;;
21239;SDS011;10778;48.962;9.018;2023-09-12T10:57:33;11.48;;;7.53;;
21239;SDS011;10778;48.962;9.018;2023-09-12T11:02:30;13.52;;;7.55;;
21239;SDS011;10778;48.962;9.018;2023-09-12T11:04:58;10.38;;;7.35;;
21239;SDS011;10778;48.962;9.018;2023-09-12T11:10:25;11.73;;;7.68;;
21239;SDS011;10778;48.962;9.018;2023-09-12T11:12:50;12.07;;;7.28;;
21239;SDS011;10778;48.962;9.018;2023-09-12T11:15:20;15.13;;;7.75;;
21239;SDS011;10778;48.962;9.018;2023-09-12T11:17:48;14.07;;;7.88;;
21239;SDS011;10778;48.962;9.018;2023-09-12T11:21:00;13.93;;;7.88;;
21239;SDS011;10778;48.962;9.018;2023-09-12T11:23:29;12.48;;;7.28;;
21239;SDS011;10778;48.962;9.018;2023-09-12T11:26:03;12.95;;;7.55;;
21239;SDS011;10778;48.962;9.018;2023-09-12T11:28:33;12.25;;;7.68;;
21239;SDS011;10778;48.962;9.018;2023-09-12T11:30:59;12.85;;;7.93;;
21239;SDS011;10778;48.962;9.018;2023-09-12T11:33:25;12.68;;;7.40;;
21239;SDS011;10778;48.962;9.018;2023-09-12T11:35:52;13.23;;;7.75;;
21239;SDS011;10778;48.962;9.018;2023-09-12T11:38:27;13.15;;;7.30;;
21239;SDS011;10778;48.962;9.018;2023-09-12T11:40:55;12.75;;;7.63;;
21239;SDS011;10778;48.962;9.018;2023-09-12T11:43:24;11.95;;;7.55;;
21239;SDS011;10778;48.962;9.018;2023-09-12T11:45:51;13.18;;;7.45;;
21239;SDS011;10778;48.962;9.018;2023-09-12T11:48:19;14.48;;;7.38;;
21239;SDS011;10778;48.962;9.018;2023-09-12T11:50:53;9.63;;;7.55;;
21239;SDS011;10778;48.962;9.018;2023-09-12T11:53:21;10.93;;;7.15;;
21239;SDS011;10778;48.962;9.018;2023-09-12T11:55:58;10.15;;;6.95;;
21239;SDS011;10778;48.962;9.018;2023-09-12T11:58:25;11.48;;;7.03;;
21239;SDS011;10778;48.962;9.018;2023-09-12T12:00:56;13.77;;;7.35;;
21239;SDS011;10778;48.962;9.018;2023-09-12T12:03:24;11.10;;;7.03;;
21239;SDS011;10778;48.962;9.018;2023-09-12T12:05:53;12.13;;;6.75;;
21239;SDS011;10778;48.962;9.018;2023-09-12T12:08:20;9.25;;;7.00;;
21239;SDS011;10778;48.962;9.018;2023-09-12T12:10:50;10.48;;;6.50;;
21239;SDS011;10778;48.962;9.018;2023-09-12T12:13:17;10.38;;;6.70;;
21239;SDS011;10778;48.962;9.018;2023-09-12T12:15:44;10.35;;;7.20;;
21239;SDS011;10778;48.962;9.018;2023-09-12T12:18:10;9.20;;;7.05;;
21239;SDS011;10778;48.962;9.018;2023-09-12T12:20:36;8.52;;;6.65;;
21239;SDS011;10778;48.962;9.018;2023-09-12T12:23:02;7.40;;;6.63;;
21239;SDS011;10778;48.962;9.018;2023-09-12T12:25:35;13.13;;;6.57;;
21239;SDS011;10778;48.962;9.018;2023-09-12T12:28:01;10.73;;;7.00;;
21239;SDS011;10778;48.962;9.018;2023-09-12T12:30:32;12.30;;;6.72;;
21239;SDS011;10778;48.962;9.018;2023-09-12T12:33:00;10.43;;;6.65;;
21239;SDS011;10778;48.962;9.018;2023-09-12T12:35:33;7.70;;;6.57;;
21239;SDS011;10778;48.962;9.018;2023-09-12T12:37:59;10.68;;;6.60;;
21239;SDS011;10778;48.962;9.018;2023-09-12T12:40:26;9.90;;;6.90;;
21239;SDS011;10778;48.962;9.018;2023-09-12T12:42:52;8.25;;;6.75;;
21239;SDS011;10778;48.962;9.018;2023-09-12T12:45:19;9.93;;;6.72;;
21239;SDS011;10778;48.962;9.018;2023-09-12T12:47:46;9.13;;;6.25;;
21239;SDS011;10778;48.962;9.018;2023-09-12T12:50:17;9.15;;;6.85;;
21239;SDS011;10778;48.962;9.018;2023-09-12T12:52:47;9.02;;;6.40;;
21239;SDS011;10778;48.962;9.018;2023-09-12T12:55:14;11.02;;;6.55;;
21239;SDS011;10778;48.962;9.018;2023-09-12T12:57:43;10.05;;;6.82;;
21239;SDS011;10778;48.962;9.018;2023-09-12T13:00:13;9.75;;;7.10;;
21239;SDS011;10778;48.962;9.018;2023-09-12T13:02:41;12.85;;;7.15;;
21239;SDS011;10778;48.962;9.018;2023-09-12T13:08:07;13.20;;;6.95;;
21239;SDS011;10778;48.962;9.018;2023-09-12T13:10:33;9.60;;;6.88;;
21239;SDS011;10778;48.962;9.018;2023-09-12T13:12:59;10.73;;;6.82;;
21239;SDS011;10778;48.962;9.018;2023-09-12T13:15:25;10.13;;;7.10;;
21239;SDS011;10778;48.962;9.018;2023-09-12T13:17:51;9.43;;;6.63;;
21239;SDS011;10778;48.962;9.018;2023-09-12T13:20:17;9.48;;;6.45;;
21239;SDS011;10778;48.962;9.018;2023-09-12T13:22:43;9.43;;;6.55;;
21239;SDS011;10778;48.962;9.018;2023-09-12T13:25:09;8.93;;;6.13;;
21239;SDS011;10778;48.962;9.018;2023-09-12T13:27:35;8.25;;;6.47;;
21239;SDS011;10778;48.962;9.018;2023-09-12T13:30:01;8.27;;;5.85;;
21239;SDS011;10778;48.962;9.018;2023-09-12T13:32:30;10.05;;;6.00;;
21239;SDS011;10778;48.962;9.018;2023-09-12T13:34:56;9.07;;;6.15;;
21239;SDS011;10778;48.962;9.018;2023-09-12T13:37:22;8.90;;;6.20;;
21239;SDS011;10778;48.962;9.018;2023-09-12T13:39:48;9.35;;;6.07;;
21239;SDS011;10778;48.962;9.018;2023-09-12T13:42:16;7.72;;;5.88;;
21239;SDS011;10778;48.962;9.018;2023-09-12T13:44:46;10.18;;;6.05;;
21239;SDS011;10778;48.962;9.018;2023-09-12T13:47:12;10.63;;;6.00;;
21239;SDS011;10778;48.962;9.018;2023-09-12T13:49:39;10.75;;;6.03;;
21239;SDS011;10778;48.962;9.018;2023-09-12T13:52:05;10.30;;;6.22;;
21239;SDS011;10778;48.962;9.018;2023-09-12T13:54:31;7.07;;;5.82;;
21239;SDS011;10778;48.962;9.018;2023-09-12T13:56:57;9.68;;;5.85;;
21239;SDS011;10778;48.962;9.018;2023-09-12T13:59:23;7.93;;;5.47;;
21239;SDS011;10778;48.962;9.018;2023-09-12T14:01:49;8.98;;;5.63;;
21239;SDS011;10778;48.962;9.018;2023-09-12T14:04:15;6.57;;;5.40;;
21239;SDS011;10778;48.962;9.018;2023-09-12T14:06:43;7.82;;;5.38;;
21239;SDS011;10778;48.962;9.018;2023-09-12T14:09:09;6.25;;;5.40;;
21239;SDS011;10778;48.962;9.018;2023-09-12T14:11:35;9.25;;;5.50;;
21239;SDS011;10778;48.962;9.018;2023-09-12T14:14:02;9.63;;;5.57;;
21239;SDS011;10778;48.962;9.018;2023-09-12T14:16:29;6.40;;;5.15;;
21239;SDS011;10778;48.962;9.018;2023-09-12T14:18:55;8.00;;;5.95;;
21239;SDS011;10778;48.962;9.018;2023-09-12T14:21:21;6.10;;;5.50;;
21239;SDS011;10778;48.962;9.018;2023-09-12T14:23:47;7.90;;;5.32;;
21239;SDS011;10778;48.962;9.018;2023-09-12T14:26:13;7.93;;;5.40;;
21239;SDS011;10778;48.962;9.018;2023-09-12T14:28:39;6.38;;;5.68;;
21239;SDS011;10778;48.962;9.018;2023-09-12T14:31:05;9.15;;;6.13;;
21239;SDS011;10778;48.962;9.018;2023-09-12T14:33:38;7.53;;;5.60;;
21239;SDS011;10778;48.962;9.018;2023-09-12T14:36:05;9.63;;;5.90;;
21239;SDS011;10778;48.962;9.018;2023-09-12T14:38:33;11.80;;;5.97;;
21239;SDS011;10778;48.962;9.018;2023-09-12T14:40:59;7.28;;;5.70;;
21239;SDS011;10778;48.962;9.018;2023-09-12T14:43:25;7.32;;;5.40;;
21239;SDS011;10778;48.962;9.018;2023-09-12T14:45:54;7.63;;;5.80;;
21239;SDS011;10778;48.962;9.018;2023-09-12T14:48:20;6.78;;;5.63;;
21239;SDS011;10778;48.962;9.018;2023-09-12T14:50:46;14.18;;;6.03;;
21239;SDS011;10778;48.962;9.018;2023-09-12T14:53:14;6.47;;;5.65;;
21239;SDS011;10778;48.962;9.018;2023-09-12T14:55:41;7.82;;;5.60;;